sensor_id;sensor_type;location;lat;lon;timestamp;P1;durP1;ratioP1;P2;durP2;ratioP2
77726;SDS011;68312;53.502;10.030;2023-05-10T00:01:32;10.32;;;3.85;;
77726;SDS011;68312;53.502;10.030;2023-05-10T00:03:57;5.75;;;3.00;;
77726;SDS011;68312;53.502;10.030;2023-05-10T00:06:22;6.05;;;3.00;;
77726;SDS011;68312;53.502;10.030;2023-05-10T00:08:48;8.80;;;3.60;;
77726;SDS011;68312;53.502;10.030;2023-05-10T00:11:13;6.05;;;3.28;;
77726;SDS011;68312;53.502;10.030;2023-05-10T00:13:39;4.03;;;2.92;;
77726;SDS011;68312;53.502;10.030;2023-05-10T00:16:08;7.00;;;3.13;;
77726;SDS011;68312;53.502;10.030;2023-05-10T00:18:33;5.47;;;3.47;;
77726;SDS011;68312;53.502;10.030;2023-05-10T00:20:59;4.07;;;3.00;;
77726;SDS011;68312;53.502;10.030;2023-05-10T00:23:24;6.28;;;3.20;;
77726;SDS011;68312;53.502;10.030;2023-05-10T00:25:50;6.15;;;3.50;;
77726;SDS011;68312;53.502;10.030;2023-05-10T00:28:15;6.43;;;3.00;;
77726;SDS011;68312;53.502;10.030;2023-05-10T00:30:41;5.93;;;3.55;;
77726;SDS011;68312;53.502;10.030;2023-05-10T00:33:06;7.32;;;3.28;;
77726;SDS011;68312;53.502;10.030;2023-05-10T00:35:32;6.05;;;3.58;;
77726;SDS011;68312;53.502;10.030;2023-05-10T00:37:57;5.07;;;3.50;;
77726;SDS011;68312;53.502;10.030;2023-05-10T00:40:23;6.05;;;3.47;;
77726;SDS011;68312;53.502;10.030;2023-05-10T00:42:48;5.53;;;3.70;;
77726;SDS011;68312;53.502;10.030;2023-05-10T00:45:14;5.35;;;3.50;;
77726;SDS011;68312;53.502;10.030;2023-05-10T00:47:39;6.18;;;3.58;;
77726;SDS011;68312;53.502;10.030;2023-05-10T00:50:06;5.28;;;3.50;;
77726;SDS011;68312;53.502;10.030;2023-05-10T00:52:33;6.05;;;4.20;;
77726;SDS011;68312;53.502;10.030;2023-05-10T00:54:58;5.53;;;3.58;;
77726;SDS011;68312;53.502;10.030;2023-05-10T00:57:25;7.15;;;3.42;;
77726;SDS011;68312;53.502;10.030;2023-05-10T00:59:51;7.93;;;3.85;;
77726;SDS011;68312;53.502;10.030;2023-05-10T01:02:16;4.97;;;3.15;;
77726;SDS011;68312;53.502;10.030;2023-05-10T01:04:42;5.95;;;3.83;;
77726;SDS011;68312;53.502;10.030;2023-05-10T01:07:08;6.93;;;3.90;;
77726;SDS011;68312;53.502;10.030;2023-05-10T01:09:33;6.18;;;3.33;;
77726;SDS011;68312;53.502;10.030;2023-05-10T01:11:59;6.70;;;3.95;;
77726;SDS011;68312;53.502;10.030;2023-05-10T01:14:26;7.57;;;3.50;;
77726;SDS011;68312;53.502;10.030;2023-05-10T01:16:53;6.05;;;3.40;;
77726;SDS011;68312;53.502;10.030;2023-05-10T01:31:08;5.47;;;3.88;;
77726;SDS011;68312;53.502;10.030;2023-05-10T01:38:57;7.00;;;3.70;;
77726;SDS011;68312;53.502;10.030;2023-05-10T01:41:48;5.70;;;3.63;;
77726;SDS011;68312;53.502;10.030;2023-05-10T01:50:18;8.38;;;3.92;;
77726;SDS011;68312;53.502;10.030;2023-05-10T01:52:53;5.22;;;3.40;;
77726;SDS011;68312;53.502;10.030;2023-05-10T01:55:23;5.75;;;3.92;;
77726;SDS011;68312;53.502;10.030;2023-05-10T01:58:06;7.53;;;3.80;;
77726;SDS011;68312;53.502;10.030;2023-05-10T02:00:39;5.63;;;3.83;;
77726;SDS011;68312;53.502;10.030;2023-05-10T02:03:10;5.88;;;3.38;;
77726;SDS011;68312;53.502;10.030;2023-05-10T02:05:39;5.43;;;3.88;;
77726;SDS011;68312;53.502;10.030;2023-05-10T02:08:09;5.82;;;3.50;;
77726;SDS011;68312;53.502;10.030;2023-05-10T02:10:36;7.43;;;3.65;;
77726;SDS011;68312;53.502;10.030;2023-05-10T02:13:05;6.60;;;3.45;;
77726;SDS011;68312;53.502;10.030;2023-05-10T02:15:34;9.82;;;4.18;;
77726;SDS011;68312;53.502;10.030;2023-05-10T02:18:03;5.22;;;3.40;;
77726;SDS011;68312;53.502;10.030;2023-05-10T02:20:34;6.10;;;4.07;;
77726;SDS011;68312;53.502;10.030;2023-05-10T02:23:02;7.35;;;3.88;;
77726;SDS011;68312;53.502;10.030;2023-05-10T02:25:30;5.50;;;4.00;;
77726;SDS011;68312;53.502;10.030;2023-05-10T02:27:57;6.60;;;4.00;;
77726;SDS011;68312;53.502;10.030;2023-05-10T02:30:27;5.78;;;3.63;;
77726;SDS011;68312;53.502;10.030;2023-05-10T02:32:54;6.63;;;3.65;;
77726;SDS011;68312;53.502;10.030;2023-05-10T02:35:21;9.48;;;3.70;;
77726;SDS011;68312;53.502;10.030;2023-05-10T02:37:48;6.18;;;3.85;;
77726;SDS011;68312;53.502;10.030;2023-05-10T02:40:15;5.72;;;3.80;;
77726;SDS011;68312;53.502;10.030;2023-05-10T02:42:44;7.28;;;3.63;;
77726;SDS011;68312;53.502;10.030;2023-05-10T02:45:19;7.25;;;3.97;;
77726;SDS011;68312;53.502;10.030;2023-05-10T02:47:52;5.47;;;3.53;;
77726;SDS011;68312;53.502;10.030;2023-05-10T02:50:18;5.72;;;3.88;;
77726;SDS011;68312;53.502;10.030;2023-05-10T02:52:51;5.55;;;3.70;;
77726;SDS011;68312;53.502;10.030;2023-05-10T02:55:26;6.78;;;4.10;;
77726;SDS011;68312;53.502;10.030;2023-05-10T02:58:01;8.48;;;3.88;;
77726;SDS011;68312;53.502;10.030;2023-05-10T03:00:28;8.32;;;3.53;;
77726;SDS011;68312;53.502;10.030;2023-05-10T03:02:54;7.15;;;4.10;;
77726;SDS011;68312;53.502;10.030;2023-05-10T03:05:20;6.32;;;3.70;;
77726;SDS011;68312;53.502;10.030;2023-05-10T03:07:46;6.43;;;3.72;;
77726;SDS011;68312;53.502;10.030;2023-05-10T03:10:15;7.53;;;4.00;;
77726;SDS011;68312;53.502;10.030;2023-05-10T03:15:55;11.48;;;4.25;;
77726;SDS011;68312;53.502;10.030;2023-05-10T03:18:42;7.00;;;3.50;;
77726;SDS011;68312;53.502;10.030;2023-05-10T03:21:19;7.47;;;4.22;;
77726;SDS011;68312;53.502;10.030;2023-05-10T03:23:51;7.25;;;3.75;;
77726;SDS011;68312;53.502;10.030;2023-05-10T03:26:34;6.13;;;3.75;;
77726;SDS011;68312;53.502;10.030;2023-05-10T03:29:05;6.28;;;4.25;;
77726;SDS011;68312;53.502;10.030;2023-05-10T03:31:33;7.25;;;3.90;;
77726;SDS011;68312;53.502;10.030;2023-05-10T03:33:59;6.50;;;4.10;;
77726;SDS011;68312;53.502;10.030;2023-05-10T03:36:24;6.05;;;3.53;;
77726;SDS011;68312;53.502;10.030;2023-05-10T03:38:50;5.43;;;3.45;;
77726;SDS011;68312;53.502;10.030;2023-05-10T03:41:15;7.30;;;4.10;;
77726;SDS011;68312;53.502;10.030;2023-05-10T03:43:41;8.18;;;3.38;;
77726;SDS011;68312;53.502;10.030;2023-05-10T03:46:06;5.63;;;3.95;;
77726;SDS011;68312;53.502;10.030;2023-05-10T03:48:32;6.55;;;3.90;;
77726;SDS011;68312;53.502;10.030;2023-05-10T03:50:58;7.05;;;4.03;;
77726;SDS011;68312;53.502;10.030;2023-05-10T03:53:24;7.90;;;3.45;;
77726;SDS011;68312;53.502;10.030;2023-05-10T03:55:50;5.43;;;3.40;;
77726;SDS011;68312;53.502;10.030;2023-05-10T03:58:16;5.25;;;3.78;;
77726;SDS011;68312;53.502;10.030;2023-05-10T04:00:41;5.60;;;4.03;;
77726;SDS011;68312;53.502;10.030;2023-05-10T04:03:07;6.35;;;3.45;;
77726;SDS011;68312;53.502;10.030;2023-05-10T04:05:32;7.18;;;3.20;;
77726;SDS011;68312;53.502;10.030;2023-05-10T04:07:58;8.93;;;3.92;;
77726;SDS011;68312;53.502;10.030;2023-05-10T04:10:23;7.03;;;3.60;;
77726;SDS011;68312;53.502;10.030;2023-05-10T04:12:48;6.15;;;4.07;;
77726;SDS011;68312;53.502;10.030;2023-05-10T04:15:14;7.20;;;3.70;;
77726;SDS011;68312;53.502;10.030;2023-05-10T04:17:40;6.78;;;3.92;;
77726;SDS011;68312;53.502;10.030;2023-05-10T04:20:05;8.25;;;3.78;;
77726;SDS011;68312;53.502;10.030;2023-05-10T04:22:31;6.32;;;4.35;;
77726;SDS011;68312;53.502;10.030;2023-05-10T04:25:00;7.82;;;4.07;;
77726;SDS011;68312;53.502;10.030;2023-05-10T04:27:26;10.57;;;3.85;;
77726;SDS011;68312;53.502;10.030;2023-05-10T04:29:51;6.97;;;4.00;;
77726;SDS011;68312;53.502;10.030;2023-05-10T04:32:17;7.78;;;3.45;;
77726;SDS011;68312;53.502;10.030;2023-05-10T04:34:43;6.68;;;3.83;;
77726;SDS011;68312;53.502;10.030;2023-05-10T04:37:08;6.55;;;4.20;;
77726;SDS011;68312;53.502;10.030;2023-05-10T04:39:34;6.28;;;4.00;;
77726;SDS011;68312;53.502;10.030;2023-05-10T04:41:59;6.95;;;4.22;;
77726;SDS011;68312;53.502;10.030;2023-05-10T04:44:28;6.75;;;3.60;;
77726;SDS011;68312;53.502;10.030;2023-05-10T04:46:54;6.13;;;3.90;;
77726;SDS011;68312;53.502;10.030;2023-05-10T04:49:20;9.65;;;4.55;;
77726;SDS011;68312;53.502;10.030;2023-05-10T04:51:45;6.32;;;3.42;;
77726;SDS011;68312;53.502;10.030;2023-05-10T04:54:14;7.03;;;4.03;;
77726;SDS011;68312;53.502;10.030;2023-05-10T04:56:39;11.35;;;5.13;;
77726;SDS011;68312;53.502;10.030;2023-05-10T04:59:04;6.38;;;3.67;;
77726;SDS011;68312;53.502;10.030;2023-05-10T05:01:30;5.45;;;3.88;;
77726;SDS011;68312;53.502;10.030;2023-05-10T05:03:55;6.78;;;3.90;;
77726;SDS011;68312;53.502;10.030;2023-05-10T05:06:24;13.15;;;4.13;;
77726;SDS011;68312;53.502;10.030;2023-05-10T05:08:50;7.72;;;3.83;;
77726;SDS011;68312;53.502;10.030;2023-05-10T05:11:16;5.43;;;3.85;;
77726;SDS011;68312;53.502;10.030;2023-05-10T05:13:42;8.30;;;3.88;;
77726;SDS011;68312;53.502;10.030;2023-05-10T05:16:08;7.50;;;3.80;;
77726;SDS011;68312;53.502;10.030;2023-05-10T05:18:34;6.10;;;3.75;;
77726;SDS011;68312;53.502;10.030;2023-05-10T05:20:59;9.25;;;3.88;;
77726;SDS011;68312;53.502;10.030;2023-05-10T05:23:25;11.93;;;4.20;;
77726;SDS011;68312;53.502;10.030;2023-05-10T05:25:53;8.45;;;3.80;;
77726;SDS011;68312;53.502;10.030;2023-05-10T05:28:19;8.15;;;4.47;;
77726;SDS011;68312;53.502;10.030;2023-05-10T05:30:45;9.85;;;4.38;;
77726;SDS011;68312;53.502;10.030;2023-05-10T05:33:13;8.60;;;3.85;;
77726;SDS011;68312;53.502;10.030;2023-05-10T05:35:39;5.93;;;3.90;;
77726;SDS011;68312;53.502;10.030;2023-05-10T05:38:04;5.97;;;3.95;;
77726;SDS011;68312;53.502;10.030;2023-05-10T05:40:30;8.73;;;3.85;;
77726;SDS011;68312;53.502;10.030;2023-05-10T05:42:55;8.18;;;3.97;;
77726;SDS011;68312;53.502;10.030;2023-05-10T05:45:21;5.15;;;3.72;;
77726;SDS011;68312;53.502;10.030;2023-05-10T05:47:46;6.18;;;4.00;;
77726;SDS011;68312;53.502;10.030;2023-05-10T05:50:12;6.07;;;3.60;;
77726;SDS011;68312;53.502;10.030;2023-05-10T05:52:37;7.80;;;3.53;;
77726;SDS011;68312;53.502;10.030;2023-05-10T05:55:03;7.18;;;3.60;;
77726;SDS011;68312;53.502;10.030;2023-05-10T05:57:29;5.65;;;3.65;;
77726;SDS011;68312;53.502;10.030;2023-05-10T05:59:54;7.55;;;3.67;;
77726;SDS011;68312;53.502;10.030;2023-05-10T06:02:19;5.35;;;3.95;;
77726;SDS011;68312;53.502;10.030;2023-05-10T06:04:45;6.13;;;3.92;;
77726;SDS011;68312;53.502;10.030;2023-05-10T06:07:10;6.65;;;3.55;;
77726;SDS011;68312;53.502;10.030;2023-05-10T06:09:36;5.78;;;3.30;;
77726;SDS011;68312;53.502;10.030;2023-05-10T06:12:01;7.15;;;4.00;;
77726;SDS011;68312;53.502;10.030;2023-05-10T06:14:27;5.45;;;3.75;;
77726;SDS011;68312;53.502;10.030;2023-05-10T06:16:52;8.38;;;3.80;;
77726;SDS011;68312;53.502;10.030;2023-05-10T06:19:18;7.53;;;3.83;;
77726;SDS011;68312;53.502;10.030;2023-05-10T06:21:43;5.72;;;3.42;;
77726;SDS011;68312;53.502;10.030;2023-05-10T06:24:09;5.38;;;3.60;;
77726;SDS011;68312;53.502;10.030;2023-05-10T06:26:34;7.20;;;3.90;;
77726;SDS011;68312;53.502;10.030;2023-05-10T06:29:00;7.43;;;4.15;;
77726;SDS011;68312;53.502;10.030;2023-05-10T06:31:26;8.02;;;3.70;;
77726;SDS011;68312;53.502;10.030;2023-05-10T06:33:51;7.53;;;4.00;;
77726;SDS011;68312;53.502;10.030;2023-05-10T06:36:17;6.43;;;3.80;;
77726;SDS011;68312;53.502;10.030;2023-05-10T06:38:42;7.18;;;3.97;;
77726;SDS011;68312;53.502;10.030;2023-05-10T06:41:08;9.10;;;3.70;;
77726;SDS011;68312;53.502;10.030;2023-05-10T06:43:33;6.78;;;3.55;;
77726;SDS011;68312;53.502;10.030;2023-05-10T06:45:59;7.78;;;3.60;;
77726;SDS011;68312;53.502;10.030;2023-05-10T06:48:24;5.93;;;3.17;;
77726;SDS011;68312;53.502;10.030;2023-05-10T06:50:50;7.78;;;3.78;;
77726;SDS011;68312;53.502;10.030;2023-05-10T06:53:15;5.47;;;3.65;;
77726;SDS011;68312;53.502;10.030;2023-05-10T06:55:44;8.25;;;3.95;;
77726;SDS011;68312;53.502;10.030;2023-05-10T06:58:09;5.18;;;3.92;;
77726;SDS011;68312;53.502;10.030;2023-05-10T07:00:35;6.13;;;3.80;;
77726;SDS011;68312;53.502;10.030;2023-05-10T07:03:00;10.50;;;4.25;;
77726;SDS011;68312;53.502;10.030;2023-05-10T07:05:26;6.20;;;3.50;;
77726;SDS011;68312;53.502;10.030;2023-05-10T07:07:51;7.32;;;4.03;;
77726;SDS011;68312;53.502;10.030;2023-05-10T07:10:17;4.90;;;3.40;;
77726;SDS011;68312;53.502;10.030;2023-05-10T07:12:42;7.20;;;3.50;;
77726;SDS011;68312;53.502;10.030;2023-05-10T07:15:08;5.57;;;3.47;;
77726;SDS011;68312;53.502;10.030;2023-05-10T07:17:34;5.30;;;3.50;;
77726;SDS011;68312;53.502;10.030;2023-05-10T07:19:59;5.93;;;3.67;;
77726;SDS011;68312;53.502;10.030;2023-05-10T07:22:25;11.50;;;4.32;;
77726;SDS011;68312;53.502;10.030;2023-05-10T07:24:51;8.40;;;3.67;;
77726;SDS011;68312;53.502;10.030;2023-05-10T07:27:16;9.68;;;3.85;;
77726;SDS011;68312;53.502;10.030;2023-05-10T07:29:42;16.27;;;3.92;;
77726;SDS011;68312;53.502;10.030;2023-05-10T07:32:07;11.68;;;3.20;;
77726;SDS011;68312;53.502;10.030;2023-05-10T07:34:33;7.35;;;3.47;;
77726;SDS011;68312;53.502;10.030;2023-05-10T07:36:58;9.27;;;3.95;;
77726;SDS011;68312;53.502;10.030;2023-05-10T07:39:24;6.43;;;3.30;;
77726;SDS011;68312;53.502;10.030;2023-05-10T07:41:50;7.50;;;3.15;;
77726;SDS011;68312;53.502;10.030;2023-05-10T07:44:16;4.65;;;3.45;;
77726;SDS011;68312;53.502;10.030;2023-05-10T07:46:44;5.35;;;3.10;;
77726;SDS011;68312;53.502;10.030;2023-05-10T07:49:13;5.45;;;3.35;;
77726;SDS011;68312;53.502;10.030;2023-05-10T07:51:38;7.25;;;3.90;;
77726;SDS011;68312;53.502;10.030;2023-05-10T07:54:04;9.40;;;3.40;;
77726;SDS011;68312;53.502;10.030;2023-05-10T07:56:30;9.73;;;3.47;;
77726;SDS011;68312;53.502;10.030;2023-05-10T07:58:57;6.47;;;3.42;;
77726;SDS011;68312;53.502;10.030;2023-05-10T08:01:29;4.45;;;3.28;;
77726;SDS011;68312;53.502;10.030;2023-05-10T08:03:57;6.47;;;3.63;;
77726;SDS011;68312;53.502;10.030;2023-05-10T08:06:23;5.50;;;3.53;;
77726;SDS011;68312;53.502;10.030;2023-05-10T08:08:48;5.50;;;3.53;;
77726;SDS011;68312;53.502;10.030;2023-05-10T08:11:17;6.10;;;3.60;;
77726;SDS011;68312;53.502;10.030;2023-05-10T08:13:43;6.78;;;3.67;;
77726;SDS011;68312;53.502;10.030;2023-05-10T08:16:10;6.78;;;3.60;;
77726;SDS011;68312;53.502;10.030;2023-05-10T08:18:36;5.15;;;3.20;;
77726;SDS011;68312;53.502;10.030;2023-05-10T08:21:03;6.45;;;3.47;;
77726;SDS011;68312;53.502;10.030;2023-05-10T08:23:29;6.53;;;3.75;;
77726;SDS011;68312;53.502;10.030;2023-05-10T08:25:55;8.57;;;3.60;;
77726;SDS011;68312;53.502;10.030;2023-05-10T08:28:20;5.53;;;3.60;;
77726;SDS011;68312;53.502;10.030;2023-05-10T08:30:45;8.20;;;4.35;;
77726;SDS011;68312;53.502;10.030;2023-05-10T08:33:11;8.68;;;3.85;;
77726;SDS011;68312;53.502;10.030;2023-05-10T08:35:36;9.77;;;4.15;;
77726;SDS011;68312;53.502;10.030;2023-05-10T08:38:02;5.38;;;3.60;;
77726;SDS011;68312;53.502;10.030;2023-05-10T08:40:27;7.78;;;3.78;;
77726;SDS011;68312;53.502;10.030;2023-05-10T08:42:55;6.95;;;4.20;;
77726;SDS011;68312;53.502;10.030;2023-05-10T08:45:32;7.15;;;4.05;;
77726;SDS011;68312;53.502;10.030;2023-05-10T08:48:07;5.53;;;3.55;;
77726;SDS011;68312;53.502;10.030;2023-05-10T08:50:35;8.20;;;3.60;;
77726;SDS011;68312;53.502;10.030;2023-05-10T08:53:09;8.88;;;4.15;;
77726;SDS011;68312;53.502;10.030;2023-05-10T08:55:38;5.13;;;3.55;;
77726;SDS011;68312;53.502;10.030;2023-05-10T08:58:05;10.05;;;3.92;;
77726;SDS011;68312;53.502;10.030;2023-05-10T09:00:32;6.45;;;4.00;;
77726;SDS011;68312;53.502;10.030;2023-05-10T09:02:58;7.75;;;4.32;;
77726;SDS011;68312;53.502;10.030;2023-05-10T09:05:26;7.88;;;4.15;;
77726;SDS011;68312;53.502;10.030;2023-05-10T09:07:52;14.45;;;4.47;;
77726;SDS011;68312;53.502;10.030;2023-05-10T09:10:18;5.88;;;3.50;;
77726;SDS011;68312;53.502;10.030;2023-05-10T09:12:45;5.60;;;3.80;;
77726;SDS011;68312;53.502;10.030;2023-05-10T09:15:14;6.97;;;4.03;;
77726;SDS011;68312;53.502;10.030;2023-05-10T09:17:41;6.15;;;4.00;;
77726;SDS011;68312;53.502;10.030;2023-05-10T09:20:09;5.22;;;3.67;;
77726;SDS011;68312;53.502;10.030;2023-05-10T09:22:35;5.82;;;4.07;;
77726;SDS011;68312;53.502;10.030;2023-05-10T09:25:04;7.72;;;4.25;;
77726;SDS011;68312;53.502;10.030;2023-05-10T09:27:35;6.88;;;3.85;;
77726;SDS011;68312;53.502;10.030;2023-05-10T09:30:03;7.25;;;3.78;;
77726;SDS011;68312;53.502;10.030;2023-05-10T09:32:37;6.95;;;3.88;;
77726;SDS011;68312;53.502;10.030;2023-05-10T09:35:09;6.60;;;4.28;;
77726;SDS011;68312;53.502;10.030;2023-05-10T09:37:51;7.07;;;4.28;;
77726;SDS011;68312;53.502;10.030;2023-05-10T09:40:20;6.30;;;4.55;;
77726;SDS011;68312;53.502;10.030;2023-05-10T09:45:31;6.75;;;4.65;;
77726;SDS011;68312;53.502;10.030;2023-05-10T09:48:01;8.65;;;4.50;;
77726;SDS011;68312;53.502;10.030;2023-05-10T09:50:31;7.25;;;4.88;;
77726;SDS011;68312;53.502;10.030;2023-05-10T09:53:00;7.75;;;5.20;;
77726;SDS011;68312;53.502;10.030;2023-05-10T09:55:41;6.65;;;4.70;;
77726;SDS011;68312;53.502;10.030;2023-05-10T09:58:11;8.35;;;4.38;;
77726;SDS011;68312;53.502;10.030;2023-05-10T10:00:39;8.50;;;4.90;;
77726;SDS011;68312;53.502;10.030;2023-05-10T10:03:17;7.72;;;4.95;;
77726;SDS011;68312;53.502;10.030;2023-05-10T10:05:46;6.68;;;5.40;;
77726;SDS011;68312;53.502;10.030;2023-05-10T10:08:13;9.50;;;5.35;;
77726;SDS011;68312;53.502;10.030;2023-05-10T10:10:41;7.55;;;5.35;;
77726;SDS011;68312;53.502;10.030;2023-05-10T10:13:07;7.75;;;5.90;;
77726;SDS011;68312;53.502;10.030;2023-05-10T10:15:33;8.20;;;5.20;;
77726;SDS011;68312;53.502;10.030;2023-05-10T10:18:00;7.78;;;5.22;;
77726;SDS011;68312;53.502;10.030;2023-05-10T10:20:26;8.77;;;5.18;;
77726;SDS011;68312;53.502;10.030;2023-05-10T10:22:53;7.82;;;5.70;;
77726;SDS011;68312;53.502;10.030;2023-05-10T10:25:19;7.95;;;5.25;;
77726;SDS011;68312;53.502;10.030;2023-05-10T10:33:13;9.10;;;5.88;;
77726;SDS011;68312;53.502;10.030;2023-05-10T10:36:02;9.07;;;4.93;;
77726;SDS011;68312;53.502;10.030;2023-05-10T10:38:54;10.35;;;6.32;;
77726;SDS011;68312;53.502;10.030;2023-05-10T10:41:39;9.80;;;6.03;;
77726;SDS011;68312;53.502;10.030;2023-05-10T10:52:36;10.65;;;5.72;;
77726;SDS011;68312;53.502;10.030;2023-05-10T10:57:51;8.95;;;5.90;;
77726;SDS011;68312;53.502;10.030;2023-05-10T11:03:10;7.82;;;5.65;;
77726;SDS011;68312;53.502;10.030;2023-05-10T11:05:44;8.38;;;5.90;;
77726;SDS011;68312;53.502;10.030;2023-05-10T11:08:27;8.38;;;5.95;;
77726;SDS011;68312;53.502;10.030;2023-05-10T11:13:28;7.45;;;5.97;;
77726;SDS011;68312;53.502;10.030;2023-05-10T11:19:05;8.43;;;5.72;;
77726;SDS011;68312;53.502;10.030;2023-05-10T11:21:44;10.73;;;5.88;;
77726;SDS011;68312;53.502;10.030;2023-05-10T11:24:17;8.55;;;6.38;;
77726;SDS011;68312;53.502;10.030;2023-05-10T11:26:52;8.75;;;6.00;;
77726;SDS011;68312;53.502;10.030;2023-05-10T11:29:18;10.00;;;6.75;;
77726;SDS011;68312;53.502;10.030;2023-05-10T11:31:50;9.60;;;6.20;;
77726;SDS011;68312;53.502;10.030;2023-05-10T11:34:26;11.70;;;6.18;;
77726;SDS011;68312;53.502;10.030;2023-05-10T11:36:55;9.85;;;6.25;;
77726;SDS011;68312;53.502;10.030;2023-05-10T11:39:29;11.65;;;6.85;;
77726;SDS011;68312;53.502;10.030;2023-05-10T11:41:57;10.35;;;6.40;;
77726;SDS011;68312;53.502;10.030;2023-05-10T11:44:28;9.18;;;6.15;;
77726;SDS011;68312;53.502;10.030;2023-05-10T11:46:58;10.03;;;6.70;;
77726;SDS011;68312;53.502;10.030;2023-05-10T11:49:25;9.43;;;6.63;;
77726;SDS011;68312;53.502;10.030;2023-05-10T11:51:51;10.27;;;6.60;;
77726;SDS011;68312;53.502;10.030;2023-05-10T11:54:16;9.02;;;6.68;;
77726;SDS011;68312;53.502;10.030;2023-05-10T11:56:42;10.70;;;6.70;;
77726;SDS011;68312;53.502;10.030;2023-05-10T11:59:07;9.65;;;6.35;;
77726;SDS011;68312;53.502;10.030;2023-05-10T12:01:33;10.85;;;7.15;;
77726;SDS011;68312;53.502;10.030;2023-05-10T12:04:00;9.93;;;6.32;;
77726;SDS011;68312;53.502;10.030;2023-05-10T12:06:32;11.95;;;7.07;;
77726;SDS011;68312;53.502;10.030;2023-05-10T12:09:06;11.40;;;7.20;;
77726;SDS011;68312;53.502;10.030;2023-05-10T12:11:35;10.20;;;6.22;;
77726;SDS011;68312;53.502;10.030;2023-05-10T12:14:04;8.77;;;6.43;;
77726;SDS011;68312;53.502;10.030;2023-05-10T12:16:30;11.23;;;6.30;;
77726;SDS011;68312;53.502;10.030;2023-05-10T12:18:56;9.93;;;6.68;;
77726;SDS011;68312;53.502;10.030;2023-05-10T12:21:25;9.95;;;6.97;;
77726;SDS011;68312;53.502;10.030;2023-05-10T12:23:56;13.18;;;6.50;;
77726;SDS011;68312;53.502;10.030;2023-05-10T12:28:54;9.98;;;5.30;;
77726;SDS011;68312;53.502;10.030;2023-05-10T12:31:20;8.18;;;5.80;;
77726;SDS011;68312;53.502;10.030;2023-05-10T12:33:49;8.05;;;5.35;;
77726;SDS011;68312;53.502;10.030;2023-05-10T12:36:15;10.88;;;4.93;;
77726;SDS011;68312;53.502;10.030;2023-05-10T12:38:42;7.53;;;5.10;;
77726;SDS011;68312;53.502;10.030;2023-05-10T12:41:10;6.82;;;4.88;;
77726;SDS011;68312;53.502;10.030;2023-05-10T12:43:39;9.25;;;5.28;;
77726;SDS011;68312;53.502;10.030;2023-05-10T12:46:09;11.25;;;6.45;;
77726;SDS011;68312;53.502;10.030;2023-05-10T12:48:38;8.45;;;5.40;;
77726;SDS011;68312;53.502;10.030;2023-05-10T12:51:06;9.55;;;6.18;;
77726;SDS011;68312;53.502;10.030;2023-05-10T12:53:33;6.75;;;5.05;;
77726;SDS011;68312;53.502;10.030;2023-05-10T12:55:58;6.97;;;4.90;;
77726;SDS011;68312;53.502;10.030;2023-05-10T12:58:24;7.25;;;4.72;;
77726;SDS011;68312;53.502;10.030;2023-05-10T13:00:49;7.55;;;5.20;;
77726;SDS011;68312;53.502;10.030;2023-05-10T13:03:15;7.82;;;5.20;;
77726;SDS011;68312;53.502;10.030;2023-05-10T13:05:40;5.85;;;4.15;;
77726;SDS011;68312;53.502;10.030;2023-05-10T13:08:06;5.90;;;4.13;;
77726;SDS011;68312;53.502;10.030;2023-05-10T13:10:31;6.40;;;4.78;;
77726;SDS011;68312;53.502;10.030;2023-05-10T13:12:57;6.30;;;4.47;;
77726;SDS011;68312;53.502;10.030;2023-05-10T13:15:24;7.85;;;5.00;;
77726;SDS011;68312;53.502;10.030;2023-05-10T13:17:51;10.40;;;4.80;;
77726;SDS011;68312;53.502;10.030;2023-05-10T13:20:17;6.18;;;4.63;;
77726;SDS011;68312;53.502;10.030;2023-05-10T13:22:43;8.55;;;5.05;;
77726;SDS011;68312;53.502;10.030;2023-05-10T13:25:09;7.47;;;4.95;;
77726;SDS011;68312;53.502;10.030;2023-05-10T13:27:35;7.55;;;4.72;;
77726;SDS011;68312;53.502;10.030;2023-05-10T13:30:01;5.85;;;4.70;;
77726;SDS011;68312;53.502;10.030;2023-05-10T13:32:27;5.35;;;3.97;;
77726;SDS011;68312;53.502;10.030;2023-05-10T13:34:53;7.85;;;4.70;;
77726;SDS011;68312;53.502;10.030;2023-05-10T13:37:19;9.55;;;5.22;;
77726;SDS011;68312;53.502;10.030;2023-05-10T13:39:45;9.50;;;5.15;;
77726;SDS011;68312;53.502;10.030;2023-05-10T13:42:13;7.30;;;5.28;;
77726;SDS011;68312;53.502;10.030;2023-05-10T13:44:39;7.55;;;4.82;;
77726;SDS011;68312;53.502;10.030;2023-05-10T13:47:04;6.75;;;4.90;;
77726;SDS011;68312;53.502;10.030;2023-05-10T13:49:30;10.80;;;6.20;;
77726;SDS011;68312;53.502;10.030;2023-05-10T13:51:56;9.05;;;5.18;;
77726;SDS011;68312;53.502;10.030;2023-05-10T13:54:23;7.28;;;5.22;;
77726;SDS011;68312;53.502;10.030;2023-05-10T13:56:49;7.35;;;5.28;;
77726;SDS011;68312;53.502;10.030;2023-05-10T13:59:15;6.63;;;5.15;;
77726;SDS011;68312;53.502;10.030;2023-05-10T14:01:40;6.30;;;4.97;;
77726;SDS011;68312;53.502;10.030;2023-05-10T14:04:10;6.78;;;4.93;;
77726;SDS011;68312;53.502;10.030;2023-05-10T14:06:36;6.95;;;5.00;;
77726;SDS011;68312;53.502;10.030;2023-05-10T14:09:02;6.32;;;4.20;;
77726;SDS011;68312;53.502;10.030;2023-05-10T14:11:28;6.70;;;4.85;;
77726;SDS011;68312;53.502;10.030;2023-05-10T14:13:54;6.40;;;4.90;;
77726;SDS011;68312;53.502;10.030;2023-05-10T14:16:19;6.55;;;4.90;;
77726;SDS011;68312;53.502;10.030;2023-05-10T14:18:48;5.85;;;4.40;;
77726;SDS011;68312;53.502;10.030;2023-05-10T14:21:14;6.85;;;5.00;;
77726;SDS011;68312;53.502;10.030;2023-05-10T14:23:39;7.00;;;4.75;;
77726;SDS011;68312;53.502;10.030;2023-05-10T14:26:05;6.70;;;4.78;;
77726;SDS011;68312;53.502;10.030;2023-05-10T14:28:30;6.25;;;4.75;;
77726;SDS011;68312;53.502;10.030;2023-05-10T14:30:56;6.90;;;4.90;;
77726;SDS011;68312;53.502;10.030;2023-05-10T14:33:21;9.18;;;5.05;;
77726;SDS011;68312;53.502;10.030;2023-05-10T14:35:47;7.45;;;6.10;;
77726;SDS011;68312;53.502;10.030;2023-05-10T14:38:13;8.57;;;5.60;;
77726;SDS011;68312;53.502;10.030;2023-05-10T14:40:39;9.32;;;6.03;;
77726;SDS011;68312;53.502;10.030;2023-05-10T14:43:05;9.57;;;5.90;;
77726;SDS011;68312;53.502;10.030;2023-05-10T14:45:31;6.78;;;5.00;;
77726;SDS011;68312;53.502;10.030;2023-05-10T14:47:57;13.93;;;5.38;;
77726;SDS011;68312;53.502;10.030;2023-05-10T14:50:22;7.80;;;5.20;;
77726;SDS011;68312;53.502;10.030;2023-05-10T14:52:48;10.65;;;5.70;;
77726;SDS011;68312;53.502;10.030;2023-05-10T14:55:14;10.98;;;5.50;;
77726;SDS011;68312;53.502;10.030;2023-05-10T14:57:40;11.70;;;6.82;;
77726;SDS011;68312;53.502;10.030;2023-05-10T15:00:05;10.93;;;5.50;;
77726;SDS011;68312;53.502;10.030;2023-05-10T15:02:32;20.27;;;7.72;;
77726;SDS011;68312;53.502;10.030;2023-05-10T15:04:58;8.70;;;4.85;;
77726;SDS011;68312;53.502;10.030;2023-05-10T15:07:24;6.90;;;4.82;;
77726;SDS011;68312;53.502;10.030;2023-05-10T15:09:50;6.53;;;4.60;;
77726;SDS011;68312;53.502;10.030;2023-05-10T15:12:16;7.00;;;4.75;;
77726;SDS011;68312;53.502;10.030;2023-05-10T15:14:42;5.95;;;4.80;;
77726;SDS011;68312;53.502;10.030;2023-05-10T15:17:08;8.15;;;4.75;;
77726;SDS011;68312;53.502;10.030;2023-05-10T15:19:33;6.95;;;4.55;;
77726;SDS011;68312;53.502;10.030;2023-05-10T15:21:59;6.65;;;4.57;;
77726;SDS011;68312;53.502;10.030;2023-05-10T15:24:24;9.23;;;5.03;;
77726;SDS011;68312;53.502;10.030;2023-05-10T15:26:50;8.38;;;4.88;;
77726;SDS011;68312;53.502;10.030;2023-05-10T15:29:15;6.95;;;4.70;;
77726;SDS011;68312;53.502;10.030;2023-05-10T15:31:44;7.20;;;5.00;;